Time;durP1;ratioP1;P1;durP2;ratioP2;P2;SDS_P1;SDS_P2;PMS_P1;PMS_P2;Temp;Humidity;BMP_temperature;BMP_pressure;BME280_temperature;BME280_humidity;BME280_pressure;Samples;Min_cycle;Max_cycle;Signal;HPM_P1;HPM_P2
2021/08/17 00:01:42;;;;;;;7.83;2.73;;;13.70;99.90;;;;;;5078717;28;20523;-73
2021/08/17 00:04:10;;;;;;;13.90;2.83;;;13.70;99.90;;;;;;5077391;28;20917;-73
2021/08/17 00:06:37;;;;;;;5.63;2.90;;;13.70;99.90;;;;;;5079603;28;20535;-72
2021/08/17 00:09:04;;;;;;;6.13;3.03;;;13.70;99.90;;;;;;5077918;28;20447;-73
2021/08/17 00:11:30;;;;;;;8.13;3.13;;;13.70;99.90;;;;;;5078098;28;20469;-73
2021/08/17 00:13:58;;;;;;;6.60;3.03;;;13.80;99.90;;;;;;5077678;28;20458;-73
2021/08/17 00:16:24;;;;;;;5.63;2.57;;;13.80;99.90;;;;;;5077307;28;20757;-73
2021/08/17 00:18:51;;;;;;;8.07;3.03;;;13.80;99.90;;;;;;5077333;28;20462;-73
2021/08/17 00:21:19;;;;;;;9.90;3.10;;;13.90;99.90;;;;;;5075675;28;20458;-73
2021/08/17 00:23:46;;;;;;;3.67;2.20;;;13.90;99.90;;;;;;5076514;28;20511;-73
2021/08/17 00:26:12;;;;;;;6.17;3.10;;;13.90;99.90;;;;;;5075958;28;20478;-73
2021/08/17 00:28:39;;;;;;;3.47;2.57;;;13.90;99.90;;;;;;5074802;28;20516;-73
2021/08/17 00:31:06;;;;;;;9.97;3.20;;;14.00;99.90;;;;;;5075445;28;20827;-73
2021/08/17 00:33:33;;;;;;;4.67;2.40;;;14.00;99.90;;;;;;5076261;28;20508;-72
2021/08/17 00:36:03;;;;;;;2.90;2.33;;;14.00;99.90;;;;;;5076893;28;20458;-73
2021/08/17 00:38:31;;;;;;;8.03;2.60;;;14.00;99.90;;;;;;5075556;28;20438;-72
2021/08/17 00:40:57;;;;;;;3.40;2.27;;;14.00;99.90;;;;;;5076392;28;20457;-73
2021/08/17 00:43:24;;;;;;;10.30;2.70;;;14.00;99.90;;;;;;5076051;28;20493;-74
2021/08/17 00:45:51;;;;;;;9.63;2.70;;;14.00;99.90;;;;;;5075803;28;20454;-72
2021/08/17 00:48:18;;;;;;;5.43;3.20;;;14.00;99.90;;;;;;5076035;28;20446;-73
2021/08/17 00:50:46;;;;;;;4.50;2.33;;;14.00;99.90;;;;;;5078977;28;20515;-73
2021/08/17 00:53:13;;;;;;;4.87;2.70;;;14.00;99.90;;;;;;5079545;28;20482;-73
2021/08/17 00:55:41;;;;;;;3.80;2.90;;;14.10;99.90;;;;;;5079319;28;20458;-73
2021/08/17 00:58:08;;;;;;;6.60;2.60;;;14.10;99.90;;;;;;5079793;28;20462;-73
2021/08/17 01:00:35;;;;;;;9.77;4.00;;;14.10;99.90;;;;;;5079749;28;20523;-73
2021/08/17 01:03:01;;;;;;;4.93;2.53;;;14.10;99.90;;;;;;5080235;28;20458;-73
2021/08/17 01:05:29;;;;;;;7.00;3.30;;;14.10;99.90;;;;;;5080087;28;20523;-73
2021/08/17 01:07:58;;;;;;;4.27;2.90;;;14.20;99.90;;;;;;5079956;28;20489;-73
2021/08/17 01:10:24;;;;;;;10.93;3.93;;;14.10;99.90;;;;;;5079796;28;20918;-72
2021/08/17 01:12:53;;;;;;;5.73;3.03;;;14.10;99.90;;;;;;5079818;28;20466;-72
2021/08/17 01:15:19;;;;;;;4.90;2.80;;;14.10;99.90;;;;;;5079277;28;20572;-73
2021/08/17 01:17:46;;;;;;;6.60;2.90;;;14.10;99.90;;;;;;5078513;28;20523;-73
2021/08/17 01:20:14;;;;;;;5.37;2.90;;;14.10;99.90;;;;;;5080151;28;20462;-73
2021/08/17 01:22:42;;;;;;;5.23;2.67;;;14.10;99.90;;;;;;5079001;28;20752;-73
2021/08/17 01:25:09;;;;;;;8.27;3.10;;;14.10;99.90;;;;;;5080099;28;20557;-73
2021/08/17 01:27:39;;;;;;;4.60;2.43;;;14.10;99.90;;;;;;5080082;28;20585;-74
2021/08/17 01:30:07;;;;;;;4.10;2.60;;;14.10;99.90;;;;;;5079673;28;20462;-73
2021/08/17 01:32:33;;;;;;;6.73;2.97;;;14.10;99.90;;;;;;5078762;28;20906;-73
2021/08/17 01:35:00;;;;;;;6.70;2.80;;;14.10;99.90;;;;;;5079600;28;20466;-73
2021/08/17 01:37:27;;;;;;;10.93;3.40;;;14.10;99.90;;;;;;5079607;28;20451;-73
2021/08/17 01:40:01;;;;;;;8.93;3.20;;;14.10;99.90;;;;;;5079423;28;20469;-73
2021/08/17 01:42:28;;;;;;;8.90;3.07;;;14.10;99.90;;;;;;5078669;28;20555;-74
2021/08/17 01:44:58;;;;;;;5.70;2.83;;;14.00;99.90;;;;;;5079272;28;20439;-74
2021/08/17 01:47:26;;;;;;;6.70;2.93;;;14.00;99.90;;;;;;5078261;28;20478;-73
2021/08/17 01:49:53;;;;;;;4.70;2.60;;;14.00;99.90;;;;;;5080491;28;20481;-73
2021/08/17 01:52:19;;;;;;;3.13;2.37;;;14.00;99.90;;;;;;5080922;28;20461;-73
2021/08/17 01:54:46;;;;;;;3.47;2.70;;;14.00;99.90;;;;;;5080166;28;20454;-74
2021/08/17 01:57:13;;;;;;;5.20;3.17;;;14.10;99.90;;;;;;5080623;28;20455;-72
2021/08/17 01:59:39;;;;;;;7.47;3.00;;;14.10;99.90;;;;;;5081547;28;20457;-73
2021/08/17 02:02:08;;;;;;;5.87;2.77;;;14.10;99.90;;;;;;5080815;28;20524;-72
2021/08/17 02:04:36;;;;;;;4.13;2.67;;;14.10;99.90;;;;;;5078140;28;20458;-73
2021/08/17 02:07:03;;;;;;;7.50;2.90;;;14.10;99.90;;;;;;5077629;28;20501;-72
2021/08/17 02:09:30;;;;;;;11.03;2.77;;;14.10;99.90;;;;;;5077381;28;20477;-73
2021/08/17 02:11:56;;;;;;;8.60;3.10;;;14.20;99.90;;;;;;5077575;28;20469;-72
2021/08/17 02:14:23;;;;;;;8.57;3.10;;;14.20;99.90;;;;;;5077288;28;20811;-73
2021/08/17 02:16:50;;;;;;;3.90;2.23;;;14.20;99.90;;;;;;5077859;28;20508;-73
2021/08/17 02:19:18;;;;;;;12.33;3.27;;;14.20;99.90;;;;;;5077496;28;20454;-73
2021/08/17 02:21:45;;;;;;;7.17;3.20;;;14.20;99.90;;;;;;5077071;28;20458;-73
2021/08/17 02:24:12;;;;;;;4.80;2.53;;;14.20;99.90;;;;;;5077250;28;20557;-72
2021/08/17 02:26:39;;;;;;;7.27;2.50;;;14.20;99.90;;;;;;5077935;28;20527;-73
2021/08/17 02:29:05;;;;;;;6.37;2.50;;;14.30;99.90;;;;;;5078106;28;20454;-72
2021/08/17 02:31:32;;;;;;;4.17;2.50;;;14.30;99.90;;;;;;5077116;28;20945;-72
2021/08/17 02:33:59;;;;;;;4.37;2.17;;;14.30;99.90;;;;;;5077360;28;20461;-72
2021/08/17 02:36:27;;;;;;;3.67;2.20;;;14.30;99.90;;;;;;5078118;28;20454;-73
2021/08/17 02:38:53;;;;;;;2.90;2.30;;;14.30;99.90;;;;;;5078030;28;20459;-73
2021/08/17 02:41:20;;;;;;;5.53;3.10;;;14.30;99.90;;;;;;5076426;28;20527;-73
2021/08/17 02:43:47;;;;;;;4.70;2.50;;;14.40;99.90;;;;;;5077277;28;20747;-72
2021/08/17 02:46:14;;;;;;;5.47;2.47;;;14.40;99.90;;;;;;5076631;28;20466;-72
2021/08/17 02:48:40;;;;;;;5.27;2.20;;;14.40;99.90;;;;;;5076788;28;20482;-72
2021/08/17 02:51:07;;;;;;;7.40;3.50;;;14.40;99.90;;;;;;5077123;28;20450;-72
2021/08/17 02:53:35;;;;;;;3.57;2.40;;;14.30;99.90;;;;;;5076681;28;20568;-72
2021/08/17 02:56:03;;;;;;;5.57;2.50;;;14.40;99.90;;;;;;5076930;28;20465;-71
2021/08/17 02:58:30;;;;;;;6.20;2.83;;;14.40;99.90;;;;;;5077027;28;20450;-71
2021/08/17 03:00:56;;;;;;;6.17;2.73;;;14.40;99.90;;;;;;5076348;28;20450;-72
2021/08/17 03:03:23;;;;;;;5.83;2.80;;;14.40;99.90;;;;;;5077460;28;20531;-73
2021/08/17 03:05:50;;;;;;;5.90;2.17;;;14.40;99.90;;;;;;5076627;28;20785;-73
2021/08/17 03:08:16;;;;;;;6.50;2.43;;;14.40;99.90;;;;;;5077517;28;20478;-73
2021/08/17 03:10:44;;;;;;;8.87;2.70;;;14.40;99.90;;;;;;5076925;28;20802;-73
2021/08/17 03:13:11;;;;;;;5.70;2.27;;;14.50;99.90;;;;;;5077099;28;20458;-73
2021/08/17 03:15:39;;;;;;;7.80;2.70;;;14.40;99.90;;;;;;5077087;28;20458;-72
2021/08/17 03:18:07;;;;;;;6.73;2.70;;;14.40;99.90;;;;;;5076784;28;20455;-72
2021/08/17 03:20:35;;;;;;;5.80;2.83;;;14.40;99.90;;;;;;5077397;28;20511;-73
2021/08/17 03:23:03;;;;;;;3.60;2.50;;;14.50;99.90;;;;;;5076916;28;20458;-73
2021/08/17 03:25:30;;;;;;;2.63;2.40;;;14.50;99.90;;;;;;5077163;28;20458;-73
2021/08/17 03:27:58;;;;;;;5.30;2.90;;;14.50;99.90;;;;;;5076552;28;20499;-72
2021/08/17 03:30:26;;;;;;;6.50;2.67;;;14.50;99.90;;;;;;5077093;28;20923;-73
2021/08/17 03:32:53;;;;;;;6.93;2.90;;;14.50;99.90;;;;;;5078559;28;20906;-72
2021/08/17 03:35:20;;;;;;;5.83;3.10;;;14.50;99.90;;;;;;5076594;28;20540;-72
2021/08/17 03:37:47;;;;;;;5.13;2.30;;;14.50;99.90;;;;;;5077072;28;20458;-72
2021/08/17 03:40:17;;;;;;;5.27;3.23;;;14.50;99.90;;;;;;5076551;28;20465;-73
2021/08/17 03:42:44;;;;;;;3.50;3.07;;;14.50;99.90;;;;;;5076377;28;20486;-72
2021/08/17 03:45:14;;;;;;;8.83;3.00;;;14.50;99.90;;;;;;5075827;28;20458;-72
2021/08/17 03:47:41;;;;;;;4.73;3.43;;;14.50;99.90;;;;;;5075910;28;20517;-72
2021/08/17 03:50:11;;;;;;;3.67;2.73;;;14.50;99.90;;;;;;5075921;28;20458;-72
2021/08/17 03:52:38;;;;;;;3.57;3.23;;;14.50;99.90;;;;;;5076397;28;20462;-73
2021/08/17 03:55:07;;;;;;;5.33;3.00;;;14.50;99.90;;;;;;5076429;28;20471;-73
2021/08/17 03:57:33;;;;;;;4.97;3.47;;;14.60;99.90;;;;;;5076437;28;20465;-72
2021/08/17 04:00:00;;;;;;;6.97;2.90;;;14.60;99.90;;;;;;5076828;28;20454;-72
2021/08/17 04:02:28;;;;;;;5.83;2.83;;;14.60;99.90;;;;;;5076756;28;20926;-71
2021/08/17 04:04:55;;;;;;;7.97;2.43;;;14.60;99.90;;;;;;5076882;28;20497;-71
2021/08/17 04:07:22;;;;;;;7.83;3.67;;;14.60;99.90;;;;;;5076104;28;20481;-73
2021/08/17 04:09:49;;;;;;;5.17;3.00;;;14.60;99.90;;;;;;5075902;28;20466;-72
2021/08/17 04:12:15;;;;;;;3.90;2.80;;;14.60;99.90;;;;;;5076069;28;20473;-73
2021/08/17 04:14:42;;;;;;;6.43;3.37;;;14.60;99.90;;;;;;5076428;28;20454;-73
2021/08/17 04:17:09;;;;;;;7.93;3.60;;;14.60;99.90;;;;;;5075806;28;20943;-72
2021/08/17 04:19:39;;;;;;;4.53;2.37;;;14.60;99.90;;;;;;5075203;28;20906;-72
2021/08/17 04:22:06;;;;;;;7.10;2.80;;;14.70;99.90;;;;;;5076062;28;20918;-73
2021/08/17 04:24:33;;;;;;;8.33;3.30;;;14.60;99.90;;;;;;5078750;28;20986;-73
2021/08/17 04:27:00;;;;;;;5.60;3.23;;;14.70;99.90;;;;;;5081162;28;20461;-72
2021/08/17 04:29:26;;;;;;;6.13;2.93;;;14.70;99.90;;;;;;5079878;28;20469;-73
2021/08/17 04:31:53;;;;;;;6.20;3.33;;;14.80;99.90;;;;;;5082060;28;20515;-73
2021/08/17 04:34:20;;;;;;;4.60;2.73;;;14.80;99.90;;;;;;5081075;28;20458;-72
2021/08/17 04:36:48;;;;;;;6.03;2.37;;;14.80;99.90;;;;;;5080776;28;20454;-72
2021/08/17 04:39:15;;;;;;;6.87;3.20;;;14.70;99.90;;;;;;5081857;28;20446;-72
2021/08/17 04:41:42;;;;;;;5.77;3.17;;;14.80;99.90;;;;;;5081319;28;20835;-72
2021/08/17 04:44:09;;;;;;;3.27;2.97;;;14.70;99.90;;;;;;5080922;28;20454;-72
2021/08/17 04:46:35;;;;;;;6.17;3.23;;;14.80;99.90;;;;;;5081289;28;20454;-73
2021/08/17 04:49:02;;;;;;;6.60;2.83;;;14.80;99.90;;;;;;5081475;28;20485;-73
2021/08/17 04:51:29;;;;;;;7.60;3.37;;;14.80;99.90;;;;;;5080796;28;20922;-74
2021/08/17 04:53:58;;;;;;;8.60;3.13;;;14.80;99.90;;;;;;5080005;28;20450;-72
2021/08/17 04:56:24;;;;;;;11.00;2.93;;;14.80;99.90;;;;;;5080828;28;20881;-72
2021/08/17 04:58:51;;;;;;;6.90;3.37;;;14.90;99.90;;;;;;5082063;28;20489;-71
2021/08/17 05:01:18;;;;;;;4.70;3.00;;;14.90;99.90;;;;;;5079399;28;20920;-72
2021/08/17 05:03:45;;;;;;;6.90;2.80;;;14.90;99.90;;;;;;5079671;28;20457;-72
2021/08/17 05:06:12;;;;;;;4.27;2.67;;;15.00;99.90;;;;;;5080980;28;20788;-72
2021/08/17 05:08:39;;;;;;;5.97;2.57;;;15.00;99.90;;;;;;5081830;28;20474;-72
2021/08/17 05:11:07;;;;;;;6.40;2.90;;;15.00;99.90;;;;;;5080442;28;20458;-73
2021/08/17 05:13:33;;;;;;;7.23;3.30;;;15.00;99.90;;;;;;5081784;28;20936;-72
2021/08/17 05:16:00;;;;;;;8.10;3.10;;;15.00;99.90;;;;;;5081310;28;20458;-71
2021/08/17 05:18:32;;;;;;;6.90;2.70;;;15.00;99.90;;;;;;5081051;28;20516;-73
2021/08/17 05:20:58;;;;;;;5.60;2.87;;;15.10;99.90;;;;;;5080190;28;20925;-73
2021/08/17 05:23:25;;;;;;;8.23;3.73;;;15.10;99.90;;;;;;5079495;28;20965;-73
2021/08/17 05:25:52;;;;;;;7.43;2.53;;;15.10;99.90;;;;;;5080416;28;20458;-73
2021/08/17 05:28:20;;;;;;;8.93;2.70;;;15.10;99.90;;;;;;5081498;28;20815;-72
2021/08/17 05:30:47;;;;;;;9.27;3.23;;;15.10;99.90;;;;;;5082286;28;20611;-73
2021/08/17 05:33:15;;;;;;;4.83;2.90;;;15.10;99.90;;;;;;5080383;28;20926;-73
2021/08/17 05:35:43;;;;;;;3.70;2.40;;;15.10;99.90;;;;;;5080598;28;20454;-73
2021/08/17 05:38:10;;;;;;;4.07;2.40;;;15.10;99.90;;;;;;5081795;28;20450;-72
2021/08/17 05:40:37;;;;;;;8.77;3.17;;;15.20;99.90;;;;;;5080245;28;20981;-72
2021/08/17 05:43:04;;;;;;;7.53;2.80;;;15.20;99.90;;;;;;5079679;28;20477;-71
2021/08/17 05:45:37;;;;;;;5.20;2.83;;;15.20;99.90;;;;;;5080110;28;20458;-72
2021/08/17 05:48:04;;;;;;;10.23;3.20;;;15.20;99.90;;;;;;5077215;28;20478;-72
2021/08/17 05:50:31;;;;;;;10.67;3.47;;;15.10;99.90;;;;;;5076067;28;20907;-71
2021/08/17 05:52:57;;;;;;;11.27;3.93;;;15.10;99.90;;;;;;5076834;28;20531;-71
2021/08/17 05:55:24;;;;;;;11.63;3.50;;;15.10;99.90;;;;;;5076142;28;20458;-72
2021/08/17 05:57:55;;;;;;;6.20;2.60;;;15.10;99.90;;;;;;5076110;28;20458;-71
2021/08/17 06:00:22;;;;;;;6.57;3.30;;;15.10;99.90;;;;;;5075811;28;20481;-72
2021/08/17 06:02:50;;;;;;;6.63;3.33;;;15.00;99.90;;;;;;5076745;28;20485;-70
2021/08/17 06:05:17;;;;;;;8.10;3.20;;;15.10;99.90;;;;;;5079478;28;20906;-71
2021/08/17 06:07:47;;;;;;;9.80;3.03;;;15.00;99.90;;;;;;5081450;28;20459;-71
2021/08/17 06:10:15;;;;;;;9.07;3.67;;;14.80;99.90;;;;;;5077671;28;20515;-71
2021/08/17 06:12:42;;;;;;;7.40;3.80;;;14.70;99.90;;;;;;5077274;28;20480;-71
2021/08/17 06:15:10;;;;;;;8.70;3.57;;;14.60;99.90;;;;;;5076674;28;20462;-71
2021/08/17 06:17:37;;;;;;;8.87;3.80;;;14.70;99.90;;;;;;5076605;28;20454;-71
2021/08/17 06:20:07;;;;;;;11.13;3.40;;;14.70;99.90;;;;;;5077642;28;20465;-71
2021/08/17 06:22:34;;;;;;;8.43;3.93;;;14.70;99.90;;;;;;5077705;28;20548;-72
2021/08/17 06:25:01;;;;;;;6.13;3.10;;;14.80;99.90;;;;;;5075841;28;20786;-71
2021/08/17 06:27:28;;;;;;;14.87;3.90;;;14.90;99.90;;;;;;5076046;28;20458;-72
2021/08/17 06:29:54;;;;;;;8.30;2.90;;;15.00;99.90;;;;;;5075736;28;20478;-72
2021/08/17 06:32:21;;;;;;;9.23;3.97;;;15.20;99.90;;;;;;5076371;28;20774;-71
2021/08/17 06:34:48;;;;;;;8.13;3.10;;;15.20;99.90;;;;;;5075698;28;20822;-71
2021/08/17 06:37:16;;;;;;;11.00;2.90;;;15.30;99.90;;;;;;5074932;28;20898;-73
2021/08/17 06:39:43;;;;;;;7.57;3.73;;;15.50;99.90;;;;;;5075123;28;20454;-71
2021/08/17 06:42:10;;;;;;;6.73;2.67;;;15.50;99.90;;;;;;5075018;28;20489;-72
2021/08/17 06:44:37;;;;;;;5.90;2.60;;;15.60;99.90;;;;;;5075750;28;20515;-71
2021/08/17 06:47:06;;;;;;;7.37;3.13;;;15.60;99.90;;;;;;5074404;28;20900;-73
2021/08/17 06:49:33;;;;;;;6.43;3.10;;;15.60;99.90;;;;;;5075262;28;20481;-72
2021/08/17 06:52:00;;;;;;;8.57;3.20;;;15.60;99.90;;;;;;5075602;28;20763;-72
2021/08/17 06:54:28;;;;;;;12.03;3.60;;;15.60;99.90;;;;;;5075517;28;20458;-72
2021/08/17 06:56:54;;;;;;;10.57;3.53;;;15.60;99.90;;;;;;5075508;28;20474;-70
2021/08/17 06:59:21;;;;;;;6.00;3.17;;;15.60;99.90;;;;;;5075449;28;20918;-71
2021/08/17 07:01:48;;;;;;;8.70;3.10;;;15.50;99.90;;;;;;5075419;28;20462;-72
2021/08/17 07:04:15;;;;;;;9.30;2.87;;;15.50;99.90;;;;;;5075627;28;20838;-71
2021/08/17 07:06:41;;;;;;;10.60;3.60;;;15.50;99.90;;;;;;5075149;28;20532;-72
2021/08/17 07:09:08;;;;;;;8.83;3.30;;;15.60;99.90;;;;;;5075556;28;20477;-71
2021/08/17 07:11:36;;;;;;;14.00;3.67;;;15.60;99.90;;;;;;5075690;28;20751;-73
2021/08/17 07:14:03;;;;;;;8.63;3.70;;;15.60;99.90;;;;;;5075039;28;20519;-72
2021/08/17 07:16:30;;;;;;;9.60;2.70;;;15.70;99.90;;;;;;5075067;28;20462;-71
2021/08/17 07:18:56;;;;;;;7.73;3.47;;;15.70;99.90;;;;;;5075925;28;20442;-71
2021/08/17 07:21:23;;;;;;;10.77;3.50;;;15.70;99.90;;;;;;5076442;28;20864;-71
2021/08/17 07:23:50;;;;;;;10.87;3.00;;;15.80;99.90;;;;;;5076506;28;20454;-71
2021/08/17 07:26:18;;;;;;;10.77;3.90;;;15.90;99.90;;;;;;5075786;28;20515;-72
2021/08/17 07:28:49;;;;;;;12.47;3.67;;;16.00;99.90;;;;;;5080026;28;20485;-71
2021/08/17 07:31:16;;;;;;;9.90;3.47;;;16.00;99.90;;;;;;5083342;28;20438;-72
2021/08/17 07:33:42;;;;;;;5.50;3.27;;;16.00;99.90;;;;;;5086364;28;20476;-71
2021/08/17 07:36:09;;;;;;;7.70;2.40;;;16.10;99.90;;;;;;5086563;28;20454;-71
2021/08/17 07:38:36;;;;;;;6.23;2.97;;;16.20;99.90;;;;;;5085080;28;20454;-71
2021/08/17 07:41:03;;;;;;;8.03;2.20;;;16.20;99.90;;;;;;5084350;28;20465;-71
2021/08/17 07:43:29;;;;;;;10.10;2.97;;;16.20;99.90;;;;;;5081946;28;20485;-71
2021/08/17 07:45:58;;;;;;;5.07;2.47;;;16.10;99.90;;;;;;5083463;28;20507;-71
2021/08/17 07:48:25;;;;;;;7.77;3.40;;;16.10;99.90;;;;;;5083192;28;20489;-71
2021/08/17 07:50:52;;;;;;;5.37;2.00;;;16.00;99.90;;;;;;5083192;28;20469;-71
2021/08/17 07:53:19;;;;;;;5.43;2.93;;;16.00;99.90;;;;;;5081305;28;20472;-71
2021/08/17 07:55:46;;;;;;;6.40;2.40;;;16.00;99.90;;;;;;5076451;28;20484;-70
2021/08/17 07:58:12;;;;;;;7.90;2.80;;;16.00;99.90;;;;;;5076275;28;20570;-71
2021/08/17 08:00:39;;;;;;;5.93;2.83;;;16.00;99.90;;;;;;5079247;28;20457;-71
2021/08/17 08:03:07;;;;;;;5.10;2.80;;;15.90;99.90;;;;;;5078580;28;20791;-71
2021/08/17 08:05:34;;;;;;;4.80;2.93;;;16.00;99.90;;;;;;5078401;28;20469;-72
2021/08/17 08:08:02;;;;;;;10.13;3.20;;;16.00;99.90;;;;;;5078563;28;20462;-72
2021/08/17 08:10:29;;;;;;;10.23;3.50;;;16.10;99.90;;;;;;5078254;28;20619;-71
2021/08/17 08:12:56;;;;;;;7.63;3.10;;;16.00;99.90;;;;;;5080249;28;20468;-73
2021/08/17 08:15:23;;;;;;;7.70;2.43;;;16.00;99.90;;;;;;5079021;28;20556;-72
2021/08/17 08:17:49;;;;;;;6.40;3.27;;;15.90;99.90;;;;;;5078010;28;20922;-71
2021/08/17 08:20:20;;;;;;;8.03;3.27;;;15.70;99.90;;;;;;5078525;28;20458;-71
2021/08/17 08:22:46;;;;;;;9.27;2.93;;;15.60;99.90;;;;;;5078951;28;20874;-71
2021/08/17 08:25:13;;;;;;;6.33;2.50;;;15.50;99.90;;;;;;5078824;28;20450;-71
2021/08/17 08:27:40;;;;;;;7.77;3.53;;;15.50;99.90;;;;;;5078352;28;20537;-71
2021/08/17 08:30:08;;;;;;;8.77;2.80;;;15.50;99.90;;;;;;5078464;28;20477;-71
2021/08/17 08:32:38;;;;;;;4.57;2.50;;;15.50;99.90;;;;;;5078225;28;20587;-70
2021/08/17 08:35:07;;;;;;;3.60;2.17;;;15.60;99.90;;;;;;5078431;28;20798;-71
2021/08/17 08:37:38;;;;;;;10.43;2.67;;;15.60;99.90;;;;;;5077790;28;20535;-70
2021/08/17 08:40:07;;;;;;;5.30;2.80;;;15.70;99.90;;;;;;5078133;28;20442;-71
2021/08/17 08:42:34;;;;;;;6.73;3.03;;;15.80;99.90;;;;;;5078121;28;20822;-70
2021/08/17 08:45:01;;;;;;;6.83;2.80;;;16.00;99.90;;;;;;5077649;28;20458;-70
2021/08/17 08:47:28;;;;;;;4.33;2.57;;;16.00;99.90;;;;;;5078460;28;20457;-72
2021/08/17 08:49:55;;;;;;;6.63;2.47;;;16.00;99.90;;;;;;5077880;28;20941;-72
2021/08/17 08:52:24;;;;;;;5.30;2.33;;;16.00;99.90;;;;;;5077422;28;20488;-71
2021/08/17 08:54:52;;;;;;;5.37;2.80;;;15.90;99.90;;;;;;5078692;28;20469;-72
2021/08/17 08:57:19;;;;;;;6.50;2.73;;;15.90;99.90;;;;;;5077672;28;20914;-73
2021/08/17 08:59:46;;;;;;;3.03;2.30;;;15.90;99.90;;;;;;5077757;28;20538;-72
2021/08/17 09:02:17;;;;;;;4.90;2.80;;;15.90;99.90;;;;;;5077520;28;20458;-72
2021/08/17 09:04:51;;;;;;;2.80;2.23;;;15.80;99.90;;;;;;5077176;28;20505;-71
2021/08/17 09:07:32;;;;;;;4.03;2.50;;;15.80;99.90;;;;;;5077270;28;20565;-71
2021/08/17 09:10:03;;;;;;;7.80;3.20;;;15.80;99.90;;;;;;5076616;28;20466;-71
2021/08/17 09:12:39;;;;;;;4.83;2.40;;;15.70;99.90;;;;;;5077585;28;20439;-72
2021/08/17 09:15:10;;;;;;;8.80;3.13;;;15.80;99.90;;;;;;5077256;28;20477;-71
2021/08/17 09:17:36;;;;;;;6.47;2.90;;;15.90;99.90;;;;;;5076916;28;20438;-73
2021/08/17 09:20:04;;;;;;;11.43;2.83;;;16.10;99.90;;;;;;5077119;28;20450;-71
2021/08/17 09:22:31;;;;;;;6.93;2.40;;;16.20;99.90;;;;;;5077183;28;20489;-70
2021/08/17 09:25:01;;;;;;;13.17;3.00;;;16.20;99.90;;;;;;5076910;28;20465;-72
2021/08/17 09:27:31;;;;;;;5.60;2.77;;;16.10;99.90;;;;;;5077014;28;20438;-71
2021/08/17 09:30:06;;;;;;;5.60;2.83;;;16.00;99.90;;;;;;5077133;28;20786;-71
2021/08/17 09:32:33;;;;;;;7.33;3.40;;;16.00;99.90;;;;;;5078310;28;20784;-72
2021/08/17 09:35:01;;;;;;;4.83;3.10;;;16.10;99.90;;;;;;5076063;28;20907;-72
2021/08/17 09:37:30;;;;;;;9.23;3.07;;;16.10;99.90;;;;;;5076144;28;20899;-72
2021/08/17 09:39:58;;;;;;;3.80;2.80;;;16.10;99.90;;;;;;5075981;28;20987;-73
2021/08/17 09:42:27;;;;;;;5.13;3.20;;;16.20;99.90;;;;;;5076149;28;20479;-72
2021/08/17 09:45:12;;;;;;;8.50;3.30;;;16.20;99.90;;;;;;5076117;28;20537;-71
2021/08/17 09:47:41;;;;;;;8.00;3.30;;;16.20;99.90;;;;;;5076363;28;20452;-73
2021/08/17 09:50:24;;;;;;;8.67;3.13;;;16.10;99.90;;;;;;5075894;28;20776;-73
2021/08/17 09:53:04;;;;;;;10.30;3.33;;;16.10;99.90;;;;;;5076092;28;20446;-72
2021/08/17 09:55:38;;;;;;;5.43;3.00;;;16.10;99.90;;;;;;5075590;28;20443;-73
2021/08/17 09:58:18;;;;;;;12.43;3.47;;;16.10;99.90;;;;;;5075848;28;20443;-71
2021/08/17 10:00:46;;;;;;;6.00;2.73;;;16.10;99.90;;;;;;5075719;28;20465;-73
2021/08/17 10:03:15;;;;;;;7.23;3.10;;;16.10;99.90;;;;;;5075748;28;20463;-72
2021/08/17 10:05:42;;;;;;;5.80;3.10;;;16.10;99.90;;;;;;5075786;28;20457;-71
2021/08/17 10:08:11;;;;;;;8.30;3.27;;;16.20;99.90;;;;;;5075596;28;20489;-72
2021/08/17 10:10:38;;;;;;;7.73;3.27;;;16.10;99.90;;;;;;5075635;28;20551;-73
2021/08/17 10:13:05;;;;;;;12.93;3.97;;;16.10;99.90;;;;;;5075405;28;20786;-71
2021/08/17 10:15:31;;;;;;;7.80;3.30;;;16.10;99.90;;;;;;5075396;28;20515;-73
2021/08/17 10:18:01;;;;;;;8.13;3.47;;;16.10;99.90;;;;;;5075771;28;20477;-72
2021/08/17 10:20:29;;;;;;;6.13;3.07;;;16.20;99.90;;;;;;5075745;28;20454;-72
2021/08/17 10:22:56;;;;;;;8.10;3.20;;;16.20;99.90;;;;;;5074491;28;20854;-71
2021/08/17 10:25:24;;;;;;;17.27;3.23;;;16.30;99.90;;;;;;5075119;28;20569;-70
2021/08/17 10:27:50;;;;;;;4.27;2.70;;;16.40;99.90;;;;;;5074802;28;20476;-71
2021/08/17 10:30:21;;;;;;;6.03;3.20;;;16.40;99.90;;;;;;5075037;28;20493;-70
2021/08/17 10:33:01;;;;;;;7.50;3.40;;;16.40;99.90;;;;;;5075328;28;20511;-70
2021/08/17 10:35:56;;;;;;;6.60;2.70;;;16.60;99.90;;;;;;5075150;28;20473;-71
2021/08/17 10:38:44;;;;;;;6.53;2.90;;;16.70;99.90;;;;;;5075438;28;20447;-71
2021/08/17 10:41:12;;;;;;;7.73;2.77;;;16.90;99.90;;;;;;5074678;28;20497;-71
2021/08/17 10:44:16;;;;;;;6.70;2.83;;;16.90;99.90;;;;;;5074571;28;20607;-70
2021/08/17 10:47:01;;;;;;;9.33;2.70;;;16.80;99.90;;;;;;5075285;28;20723;-72
2021/08/17 10:49:49;;;;;;;7.27;3.13;;;16.80;99.90;;;;;;5075170;28;20485;-72
2021/08/17 10:52:38;;;;;;;5.57;2.53;;;16.80;99.90;;;;;;5074820;28;20829;-72
2021/08/17 10:55:29;;;;;;;8.73;2.60;;;16.90;99.90;;;;;;5074516;28;20454;-72
2021/08/17 10:57:58;;;;;;;7.70;2.93;;;16.90;99.90;;;;;;5074738;28;20813;-72
2021/08/17 11:01:04;;;;;;;5.27;2.63;;;16.80;99.90;;;;;;5074287;28;20446;-72
2021/08/17 11:03:39;;;;;;;10.10;2.40;;;16.70;99.90;;;;;;5069268;28;20910;-73
2021/08/17 11:06:08;;;;;;;7.63;2.60;;;16.60;99.90;;;;;;5074187;28;20450;-73
2021/08/17 11:08:37;;;;;;;5.50;2.47;;;16.60;99.90;;;;;;5074766;28;20450;-72
2021/08/17 11:11:06;;;;;;;8.40;2.47;;;16.50;99.90;;;;;;5074351;28;20510;-72
2021/08/17 11:13:33;;;;;;;4.17;2.00;;;16.50;99.90;;;;;;5074154;28;20454;-71
2021/08/17 11:16:09;;;;;;;6.80;2.57;;;16.50;99.90;;;;;;5074975;28;20454;-72
2021/08/17 11:18:49;;;;;;;12.30;2.70;;;16.50;99.90;;;;;;5074773;28;20466;-73
2021/08/17 11:21:31;;;;;;;8.57;2.80;;;16.20;99.90;;;;;;5074417;28;20439;-71
2021/08/17 11:24:17;;;;;;;9.33;2.73;;;16.00;99.90;;;;;;5074336;28;20487;-72
2021/08/17 11:26:46;;;;;;;8.00;2.60;;;15.70;99.90;;;;;;5074295;28;20453;-72
2021/08/17 11:29:29;;;;;;;9.73;2.67;;;15.60;99.90;;;;;;5074160;28;20488;-72
2021/08/17 11:31:56;;;;;;;3.63;2.50;;;15.60;99.90;;;;;;5072237;28;20956;-72
2021/08/17 11:34:25;;;;;;;4.17;2.20;;;15.60;99.90;;;;;;5074224;28;20476;-71
2021/08/17 11:37:03;;;;;;;4.70;2.57;;;15.50;99.90;;;;;;5072808;28;20458;-71
2021/08/17 11:39:32;;;;;;;7.77;2.67;;;15.40;99.90;;;;;;5074068;28;20442;-72
2021/08/17 11:41:59;;;;;;;4.63;3.00;;;15.40;99.90;;;;;;5073854;28;20624;-72
2021/08/17 11:44:28;;;;;;;5.47;3.07;;;15.40;99.90;;;;;;5073967;28;20450;-71
2021/08/17 11:47:07;;;;;;;6.23;3.00;;;15.40;99.90;;;;;;5073996;28;20454;-72
2021/08/17 11:49:35;;;;;;;10.27;2.63;;;15.50;99.90;;;;;;5074115;28;20519;-72
2021/08/17 11:52:10;;;;;;;8.47;3.70;;;15.60;99.90;;;;;;5074413;28;20825;-72
2021/08/17 11:54:43;;;;;;;12.33;4.30;;;15.60;99.90;;;;;;5073834;28;20446;-72
2021/08/17 11:57:10;;;;;;;3.60;2.50;;;15.80;99.90;;;;;;5074304;28;20439;-71
2021/08/17 11:59:39;;;;;;;4.70;2.83;;;16.00;99.90;;;;;;5073887;28;20853;-72
2021/08/17 12:02:06;;;;;;;6.73;2.80;;;16.20;99.90;;;;;;5073537;28;20907;-72
2021/08/17 12:04:32;;;;;;;12.03;3.60;;;16.40;99.90;;;;;;5073698;28;20789;-72
2021/08/17 12:07:14;;;;;;;8.63;3.90;;;16.50;99.90;;;;;;5073904;28;20458;-72
2021/08/17 12:09:43;;;;;;;8.27;2.60;;;16.70;99.90;;;;;;5073992;28;20461;-72
2021/08/17 12:12:11;;;;;;;13.57;3.13;;;16.80;99.90;;;;;;5073620;28;20789;-72
2021/08/17 12:14:38;;;;;;;4.63;2.93;;;16.90;99.90;;;;;;5073786;28;20458;-72
2021/08/17 12:17:07;;;;;;;7.00;2.93;;;17.20;99.90;;;;;;5073649;28;20469;-71
2021/08/17 12:19:34;;;;;;;5.00;2.67;;;17.30;99.90;;;;;;5073346;28;20926;-72
2021/08/17 12:22:01;;;;;;;5.50;2.97;;;17.30;99.90;;;;;;5073055;28;20462;-70
2021/08/17 12:24:33;;;;;;;6.33;2.70;;;17.20;99.90;;;;;;5073993;28;20893;-69
2021/08/17 12:27:02;;;;;;;11.73;3.00;;;17.10;99.90;;;;;;5073144;28;20447;-71
2021/08/17 12:29:39;;;;;;;4.57;2.60;;;16.90;99.90;;;;;;5073052;28;20458;-71
2021/08/17 12:32:16;;;;;;;5.83;2.97;;;16.70;99.90;;;;;;5073498;28;20461;-72
2021/08/17 12:34:45;;;;;;;10.23;2.70;;;16.80;99.90;;;;;;5073392;28;20882;-72
2021/08/17 12:37:30;;;;;;;2.77;2.10;;;16.90;99.90;;;;;;5073006;28;21007;-71
2021/08/17 12:39:59;;;;;;;5.03;2.60;;;17.00;99.90;;;;;;5073515;28;20833;-72
2021/08/17 12:42:27;;;;;;;6.50;2.77;;;17.10;99.90;;;;;;5072938;28;20993;-73
2021/08/17 12:44:54;;;;;;;8.37;3.27;;;17.20;99.90;;;;;;5074149;28;20461;-72
2021/08/17 12:47:23;;;;;;;10.87;2.30;;;17.30;99.90;;;;;;5076976;28;20458;-72
2021/08/17 12:49:52;;;;;;;12.73;2.73;;;17.40;99.90;;;;;;5077144;28;20458;-71
2021/08/17 12:52:33;;;;;;;10.00;2.60;;;17.40;99.90;;;;;;5076753;28;20790;-71
2021/08/17 12:55:06;;;;;;;6.43;2.60;;;17.40;99.90;;;;;;5077061;28;20476;-71